sensor_id;sensor_type;location;lat;lon;timestamp;temperature;humidity
9179;DHT22;71287;48.414;11.478;2024-02-28T00:00:23;5.40;99.90
9179;DHT22;71287;48.414;11.478;2024-02-28T00:02:50;5.30;99.90
9179;DHT22;71287;48.414;11.478;2024-02-28T00:05:17;5.30;99.90
9179;DHT22;71287;48.414;11.478;2024-02-28T00:07:43;5.30;99.90
9179;DHT22;71287;48.414;11.478;2024-02-28T00:10:13;5.20;99.90
9179;DHT22;71287;48.414;11.478;2024-02-28T00:12:39;5.10;99.90
9179;DHT22;71287;48.414;11.478;2024-02-28T00:15:07;5.10;99.90
9179;DHT22;71287;48.414;11.478;2024-02-28T00:17:38;5.00;99.90
9179;DHT22;71287;48.414;11.478;2024-02-28T00:20:07;5.00;99.90
9179;DHT22;71287;48.414;11.478;2024-02-28T00:22:34;5.00;99.90
9179;DHT22;71287;48.414;11.478;2024-02-28T00:25:01;5.00;99.90
9179;DHT22;71287;48.414;11.478;2024-02-28T00:27:29;5.00;99.90
9179;DHT22;71287;48.414;11.478;2024-02-28T00:29:56;4.90;99.90
9179;DHT22;71287;48.414;11.478;2024-02-28T00:32:23;4.90;99.90
9179;DHT22;71287;48.414;11.478;2024-02-28T00:34:49;4.90;99.90
9179;DHT22;71287;48.414;11.478;2024-02-28T00:37:16;4.90;99.90
9179;DHT22;71287;48.414;11.478;2024-02-28T00:39:44;4.80;99.90
9179;DHT22;71287;48.414;11.478;2024-02-28T00:42:11;4.80;99.90
9179;DHT22;71287;48.414;11.478;2024-02-28T00:44:39;4.80;99.90
9179;DHT22;71287;48.414;11.478;2024-02-28T00:47:07;4.80;99.90
9179;DHT22;71287;48.414;11.478;2024-02-28T00:49:34;4.70;99.90
9179;DHT22;71287;48.414;11.478;2024-02-28T00:52:01;4.80;99.90
9179;DHT22;71287;48.414;11.478;2024-02-28T00:54:28;4.80;99.90
9179;DHT22;71287;48.414;11.478;2024-02-28T00:56:55;4.80;99.90
9179;DHT22;71287;48.414;11.478;2024-02-28T00:59:21;4.90;99.90
9179;DHT22;71287;48.414;11.478;2024-02-28T01:01:49;4.90;99.90
9179;DHT22;71287;48.414;11.478;2024-02-28T01:04:17;4.90;99.90
9179;DHT22;71287;48.414;11.478;2024-02-28T01:06:43;4.80;99.90
9179;DHT22;71287;48.414;11.478;2024-02-28T01:09:10;4.80;99.90
9179;DHT22;71287;48.414;11.478;2024-02-28T01:11:37;4.80;99.90
9179;DHT22;71287;48.414;11.478;2024-02-28T01:14:04;4.70;99.90
9179;DHT22;71287;48.414;11.478;2024-02-28T01:16:31;4.70;99.90
9179;DHT22;71287;48.414;11.478;2024-02-28T01:18:59;4.70;99.90
9179;DHT22;71287;48.414;11.478;2024-02-28T01:21:25;4.70;99.90
9179;DHT22;71287;48.414;11.478;2024-02-28T01:23:52;4.70;99.90
9179;DHT22;71287;48.414;11.478;2024-02-28T01:26:19;4.70;99.90
9179;DHT22;71287;48.414;11.478;2024-02-28T01:28:47;4.70;99.90
9179;DHT22;71287;48.414;11.478;2024-02-28T01:31:14;4.70;99.90
9179;DHT22;71287;48.414;11.478;2024-02-28T01:33:41;4.80;99.90
9179;DHT22;71287;48.414;11.478;2024-02-28T01:36:09;4.80;99.90
9179;DHT22;71287;48.414;11.478;2024-02-28T01:38:37;4.90;99.90
9179;DHT22;71287;48.414;11.478;2024-02-28T01:41:04;4.90;99.90
9179;DHT22;71287;48.414;11.478;2024-02-28T01:43:31;4.90;99.90
9179;DHT22;71287;48.414;11.478;2024-02-28T01:46:00;4.90;99.90
9179;DHT22;71287;48.414;11.478;2024-02-28T01:48:27;4.90;99.90
9179;DHT22;71287;48.414;11.478;2024-02-28T01:50:55;5.00;99.90
9179;DHT22;71287;48.414;11.478;2024-02-28T01:53:23;5.00;99.90
9179;DHT22;71287;48.414;11.478;2024-02-28T01:55:50;5.00;99.90
9179;DHT22;71287;48.414;11.478;2024-02-28T01:58:17;5.10;99.90
9179;DHT22;71287;48.414;11.478;2024-02-28T02:00:44;5.20;99.90
9179;DHT22;71287;48.414;11.478;2024-02-28T02:03:12;5.20;99.90
9179;DHT22;71287;48.414;11.478;2024-02-28T02:05:41;5.30;99.90
9179;DHT22;71287;48.414;11.478;2024-02-28T02:08:08;5.30;99.90
9179;DHT22;71287;48.414;11.478;2024-02-28T02:10:36;5.30;99.90
9179;DHT22;71287;48.414;11.478;2024-02-28T02:13:06;5.30;99.90
9179;DHT22;71287;48.414;11.478;2024-02-28T02:15:33;5.30;99.90
9179;DHT22;71287;48.414;11.478;2024-02-28T02:18:00;5.40;99.90
9179;DHT22;71287;48.414;11.478;2024-02-28T02:20:30;5.40;99.90
9179;DHT22;71287;48.414;11.478;2024-02-28T02:23:00;5.40;99.90
9179;DHT22;71287;48.414;11.478;2024-02-28T02:25:27;5.50;99.90
9179;DHT22;71287;48.414;11.478;2024-02-28T02:27:53;5.40;99.90
9179;DHT22;71287;48.414;11.478;2024-02-28T02:30:20;5.50;99.90
9179;DHT22;71287;48.414;11.478;2024-02-28T02:32:48;5.50;99.90
9179;DHT22;71287;48.414;11.478;2024-02-28T02:35:15;5.50;99.90
9179;DHT22;71287;48.414;11.478;2024-02-28T02:37:43;5.50;99.90
9179;DHT22;71287;48.414;11.478;2024-02-28T02:40:13;5.50;99.90
9179;DHT22;71287;48.414;11.478;2024-02-28T02:42:40;5.50;99.90
9179;DHT22;71287;48.414;11.478;2024-02-28T02:45:07;5.50;99.90
9179;DHT22;71287;48.414;11.478;2024-02-28T02:47:33;5.50;99.90
9179;DHT22;71287;48.414;11.478;2024-02-28T02:50:00;5.50;99.90
9179;DHT22;71287;48.414;11.478;2024-02-28T02:52:27;5.50;99.90
9179;DHT22;71287;48.414;11.478;2024-02-28T02:54:54;5.50;99.90
9179;DHT22;71287;48.414;11.478;2024-02-28T02:57:22;5.60;99.90
9179;DHT22;71287;48.414;11.478;2024-02-28T02:59:49;5.60;99.90
9179;DHT22;71287;48.414;11.478;2024-02-28T03:02:15;5.60;99.90
9179;DHT22;71287;48.414;11.478;2024-02-28T03:04:42;5.60;99.90
9179;DHT22;71287;48.414;11.478;2024-02-28T03:07:09;5.60;99.90
9179;DHT22;71287;48.414;11.478;2024-02-28T03:09:35;5.60;99.90
9179;DHT22;71287;48.414;11.478;2024-02-28T03:12:03;5.60;99.90
9179;DHT22;71287;48.414;11.478;2024-02-28T03:14:31;5.60;99.90
9179;DHT22;71287;48.414;11.478;2024-02-28T03:16:58;5.60;99.90
9179;DHT22;71287;48.414;11.478;2024-02-28T03:19:24;5.50;99.90
9179;DHT22;71287;48.414;11.478;2024-02-28T03:21:51;5.50;99.90
9179;DHT22;71287;48.414;11.478;2024-02-28T03:24:18;5.50;99.90
9179;DHT22;71287;48.414;11.478;2024-02-28T03:26:45;5.40;99.90
9179;DHT22;71287;48.414;11.478;2024-02-28T03:29:12;5.30;99.90
9179;DHT22;71287;48.414;11.478;2024-02-28T03:31:40;5.30;99.90
9179;DHT22;71287;48.414;11.478;2024-02-28T03:34:06;5.20;99.90
9179;DHT22;71287;48.414;11.478;2024-02-28T03:36:34;5.20;99.90
9179;DHT22;71287;48.414;11.478;2024-02-28T03:39:02;5.20;99.90
9179;DHT22;71287;48.414;11.478;2024-02-28T03:41:29;5.10;99.90
9179;DHT22;71287;48.414;11.478;2024-02-28T03:43:56;5.10;99.90
9179;DHT22;71287;48.414;11.478;2024-02-28T03:46:22;5.10;99.90
9179;DHT22;71287;48.414;11.478;2024-02-28T03:48:50;5.10;99.90
9179;DHT22;71287;48.414;11.478;2024-02-28T03:51:17;5.10;99.90
9179;DHT22;71287;48.414;11.478;2024-02-28T03:53:44;5.20;99.90
9179;DHT22;71287;48.414;11.478;2024-02-28T03:56:10;5.20;99.90
9179;DHT22;71287;48.414;11.478;2024-02-28T03:58:40;5.20;99.90
9179;DHT22;71287;48.414;11.478;2024-02-28T04:01:07;5.20;99.90
9179;DHT22;71287;48.414;11.478;2024-02-28T04:03:34;5.20;99.90
9179;DHT22;71287;48.414;11.478;2024-02-28T04:06:02;5.20;99.90
9179;DHT22;71287;48.414;11.478;2024-02-28T04:08:29;5.20;99.90
9179;DHT22;71287;48.414;11.478;2024-02-28T04:10:54;5.20;99.90
9179;DHT22;71287;48.414;11.478;2024-02-28T04:13:21;5.30;99.90
9179;DHT22;71287;48.414;11.478;2024-02-28T04:15:48;5.30;99.90
9179;DHT22;71287;48.414;11.478;2024-02-28T04:18:14;5.30;99.90
9179;DHT22;71287;48.414;11.478;2024-02-28T04:20:41;5.30;99.90
9179;DHT22;71287;48.414;11.478;2024-02-28T04:23:09;5.30;99.90
9179;DHT22;71287;48.414;11.478;2024-02-28T04:25:36;5.40;99.90
9179;DHT22;71287;48.414;11.478;2024-02-28T04:28:06;5.40;99.90
9179;DHT22;71287;48.414;11.478;2024-02-28T04:30:33;5.40;99.90
9179;DHT22;71287;48.414;11.478;2024-02-28T04:32:59;5.40;99.90
9179;DHT22;71287;48.414;11.478;2024-02-28T04:35:26;5.40;99.90
9179;DHT22;71287;48.414;11.478;2024-02-28T04:37:53;5.40;99.90
9179;DHT22;71287;48.414;11.478;2024-02-28T04:40:21;5.40;99.90
9179;DHT22;71287;48.414;11.478;2024-02-28T04:42:48;5.40;99.90
9179;DHT22;71287;48.414;11.478;2024-02-28T04:45:14;5.40;99.90
9179;DHT22;71287;48.414;11.478;2024-02-28T04:47:41;5.50;99.90
9179;DHT22;71287;48.414;11.478;2024-02-28T04:50:09;5.50;99.90
9179;DHT22;71287;48.414;11.478;2024-02-28T04:52:36;5.50;99.90
9179;DHT22;71287;48.414;11.478;2024-02-28T04:55:04;5.50;99.90
9179;DHT22;71287;48.414;11.478;2024-02-28T04:57:32;5.60;99.90
9179;DHT22;71287;48.414;11.478;2024-02-28T04:59:58;5.60;99.90
9179;DHT22;71287;48.414;11.478;2024-02-28T05:02:25;5.60;99.90
9179;DHT22;71287;48.414;11.478;2024-02-28T05:04:52;5.60;99.90
9179;DHT22;71287;48.414;11.478;2024-02-28T05:07:19;5.70;99.90
9179;DHT22;71287;48.414;11.478;2024-02-28T05:09:45;5.60;99.90
9179;DHT22;71287;48.414;11.478;2024-02-28T05:12:12;5.70;99.90
9179;DHT22;71287;48.414;11.478;2024-02-28T05:14:40;5.70;99.90
9179;DHT22;71287;48.414;11.478;2024-02-28T05:17:07;5.70;99.90
9179;DHT22;71287;48.414;11.478;2024-02-28T05:19:34;5.70;99.90
9179;DHT22;71287;48.414;11.478;2024-02-28T05:22:00;5.80;99.90
9179;DHT22;71287;48.414;11.478;2024-02-28T05:24:28;5.80;99.90
9179;DHT22;71287;48.414;11.478;2024-02-28T05:26:55;5.80;99.90
9179;DHT22;71287;48.414;11.478;2024-02-28T05:29:21;5.90;99.90
9179;DHT22;71287;48.414;11.478;2024-02-28T05:31:49;5.90;99.90
9179;DHT22;71287;48.414;11.478;2024-02-28T05:34:16;5.90;99.90
9179;DHT22;71287;48.414;11.478;2024-02-28T05:36:43;5.90;99.90
9179;DHT22;71287;48.414;11.478;2024-02-28T05:39:10;6.00;99.90
9179;DHT22;71287;48.414;11.478;2024-02-28T05:41:36;6.00;99.90
9179;DHT22;71287;48.414;11.478;2024-02-28T05:44:03;6.10;99.90
9179;DHT22;71287;48.414;11.478;2024-02-28T05:46:30;6.10;99.90
9179;DHT22;71287;48.414;11.478;2024-02-28T05:48:59;6.10;99.90
9179;DHT22;71287;48.414;11.478;2024-02-28T05:51:25;6.10;99.90
9179;DHT22;71287;48.414;11.478;2024-02-28T05:53:52;6.20;99.90
9179;DHT22;71287;48.414;11.478;2024-02-28T05:56:19;6.20;99.90
9179;DHT22;71287;48.414;11.478;2024-02-28T05:58:47;6.20;99.90
9179;DHT22;71287;48.414;11.478;2024-02-28T06:01:15;6.20;99.90
9179;DHT22;71287;48.414;11.478;2024-02-28T06:03:45;6.20;99.90
9179;DHT22;71287;48.414;11.478;2024-02-28T06:06:13;6.20;99.90
9179;DHT22;71287;48.414;11.478;2024-02-28T06:08:40;6.20;99.90
9179;DHT22;71287;48.414;11.478;2024-02-28T06:11:07;6.20;99.90
9179;DHT22;71287;48.414;11.478;2024-02-28T06:13:34;6.20;99.90
9179;DHT22;71287;48.414;11.478;2024-02-28T06:16:00;6.20;99.90
9179;DHT22;71287;48.414;11.478;2024-02-28T06:18:28;6.30;99.90
9179;DHT22;71287;48.414;11.478;2024-02-28T06:20:59;6.30;99.90
9179;DHT22;71287;48.414;11.478;2024-02-28T06:23:27;6.30;99.90
9179;DHT22;71287;48.414;11.478;2024-02-28T06:25:55;6.30;99.90
9179;DHT22;71287;48.414;11.478;2024-02-28T06:28:23;6.30;99.90
9179;DHT22;71287;48.414;11.478;2024-02-28T06:30:50;6.30;99.90
9179;DHT22;71287;48.414;11.478;2024-02-28T06:33:17;6.30;99.90
9179;DHT22;71287;48.414;11.478;2024-02-28T06:35:44;6.30;99.90
9179;DHT22;71287;48.414;11.478;2024-02-28T06:38:11;6.30;99.90
9179;DHT22;71287;48.414;11.478;2024-02-28T06:40:40;6.40;99.90
9179;DHT22;71287;48.414;11.478;2024-02-28T06:43:07;6.40;99.90
9179;DHT22;71287;48.414;11.478;2024-02-28T06:45:34;6.40;99.90
9179;DHT22;71287;48.414;11.478;2024-02-28T06:48:02;6.40;99.90
9179;DHT22;71287;48.414;11.478;2024-02-28T06:50:29;6.40;99.90
9179;DHT22;71287;48.414;11.478;2024-02-28T06:52:56;6.40;99.90
9179;DHT22;71287;48.414;11.478;2024-02-28T06:55:23;6.40;99.90
9179;DHT22;71287;48.414;11.478;2024-02-28T06:57:52;6.50;99.90
9179;DHT22;71287;48.414;11.478;2024-02-28T07:00:19;6.50;99.90
9179;DHT22;71287;48.414;11.478;2024-02-28T07:02:46;6.50;99.90
9179;DHT22;71287;48.414;11.478;2024-02-28T07:05:13;6.50;99.90
9179;DHT22;71287;48.414;11.478;2024-02-28T07:07:40;6.50;99.90
9179;DHT22;71287;48.414;11.478;2024-02-28T07:10:07;6.50;99.90
9179;DHT22;71287;48.414;11.478;2024-02-28T07:12:35;6.50;99.90
9179;DHT22;71287;48.414;11.478;2024-02-28T07:15:04;6.50;99.90
9179;DHT22;71287;48.414;11.478;2024-02-28T07:17:31;6.50;99.90
9179;DHT22;71287;48.414;11.478;2024-02-28T07:19:59;6.50;99.90
9179;DHT22;71287;48.414;11.478;2024-02-28T07:22:26;6.50;99.90
9179;DHT22;71287;48.414;11.478;2024-02-28T07:24:53;6.50;99.90
9179;DHT22;71287;48.414;11.478;2024-02-28T07:27:22;6.50;99.90
9179;DHT22;71287;48.414;11.478;2024-02-28T07:29:49;6.60;99.90
9179;DHT22;71287;48.414;11.478;2024-02-28T07:32:18;6.50;99.90
9179;DHT22;71287;48.414;11.478;2024-02-28T07:34:45;6.60;99.90
9179;DHT22;71287;48.414;11.478;2024-02-28T07:37:12;6.60;99.90
9179;DHT22;71287;48.414;11.478;2024-02-28T07:39:39;6.60;99.90
9179;DHT22;71287;48.414;11.478;2024-02-28T07:42:06;6.60;99.90
9179;DHT22;71287;48.414;11.478;2024-02-28T07:44:33;6.60;99.90
9179;DHT22;71287;48.414;11.478;2024-02-28T07:47:00;6.60;99.90
9179;DHT22;71287;48.414;11.478;2024-02-28T07:49:28;6.70;99.90
9179;DHT22;71287;48.414;11.478;2024-02-28T07:51:55;6.60;99.90
9179;DHT22;71287;48.414;11.478;2024-02-28T07:54:22;6.70;99.90
9179;DHT22;71287;48.414;11.478;2024-02-28T07:56:49;6.70;99.90
9179;DHT22;71287;48.414;11.478;2024-02-28T07:59:16;6.70;99.90
9179;DHT22;71287;48.414;11.478;2024-02-28T08:01:42;6.70;99.90
9179;DHT22;71287;48.414;11.478;2024-02-28T08:04:10;6.80;99.90
9179;DHT22;71287;48.414;11.478;2024-02-28T08:06:39;6.80;99.90
9179;DHT22;71287;48.414;11.478;2024-02-28T08:09:06;6.80;99.90
9179;DHT22;71287;48.414;11.478;2024-02-28T08:11:33;6.80;99.90
9179;DHT22;71287;48.414;11.478;2024-02-28T08:14:02;6.90;99.90
9179;DHT22;71287;48.414;11.478;2024-02-28T08:16:30;6.90;99.90
9179;DHT22;71287;48.414;11.478;2024-02-28T08:18:57;6.90;99.90
9179;DHT22;71287;48.414;11.478;2024-02-28T08:21:24;7.00;99.90
9179;DHT22;71287;48.414;11.478;2024-02-28T08:23:53;7.10;99.90
9179;DHT22;71287;48.414;11.478;2024-02-28T08:26:20;7.10;99.90
9179;DHT22;71287;48.414;11.478;2024-02-28T08:28:46;7.10;99.90
9179;DHT22;71287;48.414;11.478;2024-02-28T08:31:13;7.20;99.90
9179;DHT22;71287;48.414;11.478;2024-02-28T08:33:41;7.20;99.90
9179;DHT22;71287;48.414;11.478;2024-02-28T08:36:08;7.20;99.90
9179;DHT22;71287;48.414;11.478;2024-02-28T08:38:34;7.30;99.90
9179;DHT22;71287;48.414;11.478;2024-02-28T08:41:05;7.40;99.90
9179;DHT22;71287;48.414;11.478;2024-02-28T08:43:33;7.40;99.90
9179;DHT22;71287;48.414;11.478;2024-02-28T08:45:59;7.40;99.90
9179;DHT22;71287;48.414;11.478;2024-02-28T08:48:26;7.40;99.90
9179;DHT22;71287;48.414;11.478;2024-02-28T08:50:53;7.50;99.90
9179;DHT22;71287;48.414;11.478;2024-02-28T08:53:20;7.50;99.90
9179;DHT22;71287;48.414;11.478;2024-02-28T08:55:47;7.60;99.90
9179;DHT22;71287;48.414;11.478;2024-02-28T08:58:16;7.70;99.90
9179;DHT22;71287;48.414;11.478;2024-02-28T09:00:43;7.70;99.90
9179;DHT22;71287;48.414;11.478;2024-02-28T09:03:10;7.80;99.90
9179;DHT22;71287;48.414;11.478;2024-02-28T09:05:37;8.00;99.90
9179;DHT22;71287;48.414;11.478;2024-02-28T09:08:05;8.00;99.90
9179;DHT22;71287;48.414;11.478;2024-02-28T09:10:32;8.10;99.90
9179;DHT22;71287;48.414;11.478;2024-02-28T09:13:00;8.10;99.90
9179;DHT22;71287;48.414;11.478;2024-02-28T09:15:28;8.20;99.90
9179;DHT22;71287;48.414;11.478;2024-02-28T09:17:54;8.20;99.90
9179;DHT22;71287;48.414;11.478;2024-02-28T09:20:21;8.30;99.90
9179;DHT22;71287;48.414;11.478;2024-02-28T09:22:48;8.30;99.90
9179;DHT22;71287;48.414;11.478;2024-02-28T09:25:15;8.30;99.90
9179;DHT22;71287;48.414;11.478;2024-02-28T09:27:43;8.40;99.90
9179;DHT22;71287;48.414;11.478;2024-02-28T09:30:11;8.40;99.90
9179;DHT22;71287;48.414;11.478;2024-02-28T09:32:39;8.40;99.90
9179;DHT22;71287;48.414;11.478;2024-02-28T09:35:06;8.40;99.90
9179;DHT22;71287;48.414;11.478;2024-02-28T09:37:33;8.40;99.90
9179;DHT22;71287;48.414;11.478;2024-02-28T09:39:59;8.40;99.90
9179;DHT22;71287;48.414;11.478;2024-02-28T09:42:28;8.40;99.90
9179;DHT22;71287;48.414;11.478;2024-02-28T09:44:54;8.50;99.90
9179;DHT22;71287;48.414;11.478;2024-02-28T09:47:22;8.50;99.90
9179;DHT22;71287;48.414;11.478;2024-02-28T09:49:52;8.60;99.90
9179;DHT22;71287;48.414;11.478;2024-02-28T09:52:20;8.70;99.90
9179;DHT22;71287;48.414;11.478;2024-02-28T09:54:47;8.80;99.90
9179;DHT22;71287;48.414;11.478;2024-02-28T09:57:14;8.80;99.90
9179;DHT22;71287;48.414;11.478;2024-02-28T09:59:42;8.80;99.90
9179;DHT22;71287;48.414;11.478;2024-02-28T10:02:10;8.70;99.90
9179;DHT22;71287;48.414;11.478;2024-02-28T10:04:39;8.70;99.90
9179;DHT22;71287;48.414;11.478;2024-02-28T10:07:13;8.70;99.90
9179;DHT22;71287;48.414;11.478;2024-02-28T10:09:40;8.70;99.90
9179;DHT22;71287;48.414;11.478;2024-02-28T10:12:07;8.70;99.90
9179;DHT22;71287;48.414;11.478;2024-02-28T10:14:34;8.70;99.90
9179;DHT22;71287;48.414;11.478;2024-02-28T10:17:01;8.80;99.90
9179;DHT22;71287;48.414;11.478;2024-02-28T10:19:28;8.80;99.90
9179;DHT22;71287;48.414;11.478;2024-02-28T10:21:55;8.80;99.90
9179;DHT22;71287;48.414;11.478;2024-02-28T10:24:25;8.70;99.90
9179;DHT22;71287;48.414;11.478;2024-02-28T10:26:52;8.70;99.90
9179;DHT22;71287;48.414;11.478;2024-02-28T10:29:22;8.70;99.90
9179;DHT22;71287;48.414;11.478;2024-02-28T10:31:49;8.80;99.90
9179;DHT22;71287;48.414;11.478;2024-02-28T10:34:16;8.90;99.90
9179;DHT22;71287;48.414;11.478;2024-02-28T10:36:44;9.00;99.90
9179;DHT22;71287;48.414;11.478;2024-02-28T10:39:15;9.00;99.90
9179;DHT22;71287;48.414;11.478;2024-02-28T10:41:47;9.10;99.90
9179;DHT22;71287;48.414;11.478;2024-02-28T10:44:14;9.10;99.90
9179;DHT22;71287;48.414;11.478;2024-02-28T10:46:44;9.00;99.90
9179;DHT22;71287;48.414;11.478;2024-02-28T10:49:11;9.00;99.90
9179;DHT22;71287;48.414;11.478;2024-02-28T10:51:39;9.10;99.90
9179;DHT22;71287;48.414;11.478;2024-02-28T10:54:09;9.20;99.90
9179;DHT22;71287;48.414;11.478;2024-02-28T10:56:35;9.20;99.90
9179;DHT22;71287;48.414;11.478;2024-02-28T10:59:06;9.30;99.90
9179;DHT22;71287;48.414;11.478;2024-02-28T11:01:33;9.30;99.90
9179;DHT22;71287;48.414;11.478;2024-02-28T11:04:00;9.40;99.90
9179;DHT22;71287;48.414;11.478;2024-02-28T11:06:27;9.70;99.90
9179;DHT22;71287;48.414;11.478;2024-02-28T11:08:54;9.90;99.90
9179;DHT22;71287;48.414;11.478;2024-02-28T11:11:22;10.00;99.90
9179;DHT22;71287;48.414;11.478;2024-02-28T11:13:52;10.10;99.90
9179;DHT22;71287;48.414;11.478;2024-02-28T11:16:28;10.20;99.90
9179;DHT22;71287;48.414;11.478;2024-02-28T11:18:55;10.30;99.90
9179;DHT22;71287;48.414;11.478;2024-02-28T11:21:25;10.40;99.90
9179;DHT22;71287;48.414;11.478;2024-02-28T11:23:52;10.50;99.90
9179;DHT22;71287;48.414;11.478;2024-02-28T11:26:23;10.60;99.90
9179;DHT22;71287;48.414;11.478;2024-02-28T11:28:50;10.70;99.90
9179;DHT22;71287;48.414;11.478;2024-02-28T11:31:16;10.70;99.90
9179;DHT22;71287;48.414;11.478;2024-02-28T11:33:45;10.60;99.90
9179;DHT22;71287;48.414;11.478;2024-02-28T11:36:12;10.60;99.90
9179;DHT22;71287;48.414;11.478;2024-02-28T11:38:39;10.60;99.90
9179;DHT22;71287;48.414;11.478;2024-02-28T11:41:07;10.60;99.90
9179;DHT22;71287;48.414;11.478;2024-02-28T11:43:35;10.50;99.90
9179;DHT22;71287;48.414;11.478;2024-02-28T11:46:07;10.40;99.90
9179;DHT22;71287;48.414;11.478;2024-02-28T11:48:34;10.40;99.90
9179;DHT22;71287;48.414;11.478;2024-02-28T11:51:02;10.40;99.90
9179;DHT22;71287;48.414;11.478;2024-02-28T11:53:29;10.40;99.90
9179;DHT22;71287;48.414;11.478;2024-02-28T11:55:55;10.40;99.90
9179;DHT22;71287;48.414;11.478;2024-02-28T11:58:22;10.40;99.90
9179;DHT22;71287;48.414;11.478;2024-02-28T12:00:50;10.30;99.90
9179;DHT22;71287;48.414;11.478;2024-02-28T12:03:20;10.20;99.90
9179;DHT22;71287;48.414;11.478;2024-02-28T12:05:48;10.20;99.90
9179;DHT22;71287;48.414;11.478;2024-02-28T12:08:17;10.10;99.90
9179;DHT22;71287;48.414;11.478;2024-02-28T12:10:44;10.10;99.90
9179;DHT22;71287;48.414;11.478;2024-02-28T12:13:11;10.00;99.90
9179;DHT22;71287;48.414;11.478;2024-02-28T12:15:39;9.90;99.90
9179;DHT22;71287;48.414;11.478;2024-02-28T12:18:08;9.80;99.90
9179;DHT22;71287;48.414;11.478;2024-02-28T12:20:35;9.80;99.90
9179;DHT22;71287;48.414;11.478;2024-02-28T12:23:03;9.70;99.90
9179;DHT22;71287;48.414;11.478;2024-02-28T12:25:32;9.70;99.90
9179;DHT22;71287;48.414;11.478;2024-02-28T12:28:00;9.60;99.90
9179;DHT22;71287;48.414;11.478;2024-02-28T12:30:26;9.60;99.90
9179;DHT22;71287;48.414;11.478;2024-02-28T12:32:53;9.70;99.90
9179;DHT22;71287;48.414;11.478;2024-02-28T12:35:20;9.80;99.90
9179;DHT22;71287;48.414;11.478;2024-02-28T12:37:47;10.00;99.90
9179;DHT22;71287;48.414;11.478;2024-02-28T12:40:16;10.20;99.90
9179;DHT22;71287;48.414;11.478;2024-02-28T12:42:44;10.20;99.90
9179;DHT22;71287;48.414;11.478;2024-02-28T12:45:11;10.40;99.90
9179;DHT22;71287;48.414;11.478;2024-02-28T12:47:38;10.40;99.90
9179;DHT22;71287;48.414;11.478;2024-02-28T12:50:06;10.50;99.90
9179;DHT22;71287;48.414;11.478;2024-02-28T12:52:34;10.60;99.90
9179;DHT22;71287;48.414;11.478;2024-02-28T12:55:00;10.70;99.90
9179;DHT22;71287;48.414;11.478;2024-02-28T12:57:28;10.70;99.90
9179;DHT22;71287;48.414;11.478;2024-02-28T12:59:56;10.80;99.90
9179;DHT22;71287;48.414;11.478;2024-02-28T13:02:22;10.70;99.90
9179;DHT22;71287;48.414;11.478;2024-02-28T13:04:49;10.60;99.90
9179;DHT22;71287;48.414;11.478;2024-02-28T13:07:16;10.50;99.90
9179;DHT22;71287;48.414;11.478;2024-02-28T13:09:45;10.40;99.90
9179;DHT22;71287;48.414;11.478;2024-02-28T13:12:12;10.40;99.90
9179;DHT22;71287;48.414;11.478;2024-02-28T13:14:38;10.40;99.90
9179;DHT22;71287;48.414;11.478;2024-02-28T13:17:06;10.40;99.90
9179;DHT22;71287;48.414;11.478;2024-02-28T13:19:33;10.60;99.90
9179;DHT22;71287;48.414;11.478;2024-02-28T13:22:01;10.70;99.90
9179;DHT22;71287;48.414;11.478;2024-02-28T13:24:28;10.90;99.90
9179;DHT22;71287;48.414;11.478;2024-02-28T13:26:55;10.90;99.90
9179;DHT22;71287;48.414;11.478;2024-02-28T13:29:21;10.90;99.90
9179;DHT22;71287;48.414;11.478;2024-02-28T13:31:48;10.80;99.90
9179;DHT22;71287;48.414;11.478;2024-02-28T13:34:16;10.60;99.90
9179;DHT22;71287;48.414;11.478;2024-02-28T13:36:43;10.40;99.90
9179;DHT22;71287;48.414;11.478;2024-02-28T13:39:10;10.30;99.90
9179;DHT22;71287;48.414;11.478;2024-02-28T13:41:38;10.30;99.90
9179;DHT22;71287;48.414;11.478;2024-02-28T13:44:05;10.20;99.90
9179;DHT22;71287;48.414;11.478;2024-02-28T13:46:31;10.10;99.90
9179;DHT22;71287;48.414;11.478;2024-02-28T13:48:58;10.00;99.90
9179;DHT22;71287;48.414;11.478;2024-02-28T13:51:26;10.10;99.90
9179;DHT22;71287;48.414;11.478;2024-02-28T13:53:53;10.00;99.90
9179;DHT22;71287;48.414;11.478;2024-02-28T13:56:20;10.10;99.90
9179;DHT22;71287;48.414;11.478;2024-02-28T13:58:46;10.10;99.90
9179;DHT22;71287;48.414;11.478;2024-02-28T14:01:13;10.20;99.90
9179;DHT22;71287;48.414;11.478;2024-02-28T14:03:40;10.20;99.90
9179;DHT22;71287;48.414;11.478;2024-02-28T14:06:07;10.30;99.90
9179;DHT22;71287;48.414;11.478;2024-02-28T14:08:35;10.30;99.90
9179;DHT22;71287;48.414;11.478;2024-02-28T14:11:02;10.40;99.90
9179;DHT22;71287;48.414;11.478;2024-02-28T14:13:30;10.40;99.90
9179;DHT22;71287;48.414;11.478;2024-02-28T14:15:57;10.30;99.90
9179;DHT22;71287;48.414;11.478;2024-02-28T14:18:24;10.20;99.90
9179;DHT22;71287;48.414;11.478;2024-02-28T14:20:50;10.00;99.90
9179;DHT22;71287;48.414;11.478;2024-02-28T14:23:17;9.90;99.90
9179;DHT22;71287;48.414;11.478;2024-02-28T14:25:45;9.90;99.90
9179;DHT22;71287;48.414;11.478;2024-02-28T14:28:12;9.80;99.90
9179;DHT22;71287;48.414;11.478;2024-02-28T14:30:39;9.70;99.90
9179;DHT22;71287;48.414;11.478;2024-02-28T14:33:08;9.70;99.90
9179;DHT22;71287;48.414;11.478;2024-02-28T14:35:34;9.70;99.90
9179;DHT22;71287;48.414;11.478;2024-02-28T14:38:04;9.70;99.90
9179;DHT22;71287;48.414;11.478;2024-02-28T14:40:32;9.70;99.90
9179;DHT22;71287;48.414;11.478;2024-02-28T14:43:00;9.70;99.90
9179;DHT22;71287;48.414;11.478;2024-02-28T14:45:27;9.70;99.90
9179;DHT22;71287;48.414;11.478;2024-02-28T14:47:53;9.70;99.90
9179;DHT22;71287;48.414;11.478;2024-02-28T14:50:20;9.60;99.90
9179;DHT22;71287;48.414;11.478;2024-02-28T14:52:47;9.60;99.90
9179;DHT22;71287;48.414;11.478;2024-02-28T14:55:14;9.60;99.90
9179;DHT22;71287;48.414;11.478;2024-02-28T14:57:41;9.50;99.90
9179;DHT22;71287;48.414;11.478;2024-02-28T15:00:13;9.50;99.90
9179;DHT22;71287;48.414;11.478;2024-02-28T15:02:42;9.40;99.90
9179;DHT22;71287;48.414;11.478;2024-02-28T15:05:11;9.40;99.90
9179;DHT22;71287;48.414;11.478;2024-02-28T15:07:38;9.30;99.90
9179;DHT22;71287;48.414;11.478;2024-02-28T15:10:06;9.30;99.90
9179;DHT22;71287;48.414;11.478;2024-02-28T15:12:33;9.20;99.90
9179;DHT22;71287;48.414;11.478;2024-02-28T15:15:00;9.20;99.90
9179;DHT22;71287;48.414;11.478;2024-02-28T15:17:29;9.10;99.90
9179;DHT22;71287;48.414;11.478;2024-02-28T15:19:59;9.00;99.90
9179;DHT22;71287;48.414;11.478;2024-02-28T15:22:31;9.00;99.90
9179;DHT22;71287;48.414;11.478;2024-02-28T15:24:59;8.90;99.90
9179;DHT22;71287;48.414;11.478;2024-02-28T15:27:25;8.90;99.90
9179;DHT22;71287;48.414;11.478;2024-02-28T15:29:52;8.90;99.90
9179;DHT22;71287;48.414;11.478;2024-02-28T15:32:19;8.80;99.90
9179;DHT22;71287;48.414;11.478;2024-02-28T15:34:47;8.80;99.90
9179;DHT22;71287;48.414;11.478;2024-02-28T15:37:14;8.80;99.90
9179;DHT22;71287;48.414;11.478;2024-02-28T15:39:40;8.70;99.90
9179;DHT22;71287;48.414;11.478;2024-02-28T15:42:07;8.70;99.90